aviador You're here:

GMMX Decoded Metar

MARRAKECH in MOROCCO
Report Time2018-02-22 08:30:00
UTC Time2018-02-22 08:39:02
Flight Rules vfr VFR
WindVRB at 02 kt
Visibility9999 m
Phenomena:N/A
Clouds:Scattered 013 Hf
Scattered 020 Hf
Expected CloudBase > 1,600 ft AGL from Temp-Dew spread
CeilingNone
Temp11°C (ISA -1)
Dew Point07°C (77% RH)
AAT9.6°C
QNH1009 hPa
Density Alt1,693 ft
Elevation1,529 ft
Report Wrong Elevation
Raw Report
METAR GMMX 220830Z VRB02KT 9999 SCT013 SCT020 11/07 Q1009 NOSIG=

Extra information for GMMX:More info

Metar Taf Metar & Taf Last 4 Metars F.Rules Stats Wind Profile Meteogram Temp Stats Airport Information Weather charts Add Link Nearby VenuesMetar ALERT Operation Metar Decoded Social comments